createdAt,value
2019-01-04T00:01:17.591Z,22.36
2019-01-04T00:03:46.151Z,22.35
2019-01-04T00:06:14.603Z,22.32
2019-01-04T00:08:42.990Z,22.32
2019-01-04T00:11:11.366Z,22.31
2019-01-04T00:13:39.765Z,22.30
2019-01-04T00:16:08.213Z,22.28
2019-01-04T00:18:36.600Z,22.27
2019-01-04T00:21:04.999Z,22.26
2019-01-04T00:23:33.389Z,22.24
2019-01-04T00:26:02.066Z,22.24
2019-01-04T00:28:30.452Z,22.24
2019-01-04T00:30:58.831Z,22.22
2019-01-04T00:33:27.231Z,22.19
2019-01-04T00:35:55.609Z,22.17
2019-01-04T00:38:23.996Z,22.17
2019-01-04T00:40:52.374Z,22.16
2019-01-04T00:43:20.766Z,22.15
2019-01-04T00:45:49.152Z,22.13
2019-01-04T00:48:17.530Z,22.11
2019-01-04T00:50:45.916Z,22.11
2019-01-04T00:53:14.293Z,22.11
2019-01-04T00:56:04.029Z,22.08
2019-01-04T00:58:56.492Z,22.07
2019-01-04T01:02:01.363Z,22.05
2019-01-04T01:05:01.169Z,22.02
2019-01-04T01:07:35.576Z,21.99
2019-01-04T01:10:35.677Z,21.95
2019-01-04T01:13:21.880Z,21.94
2019-01-04T01:16:13.449Z,21.93
2019-01-04T01:19:00.061Z,21.90
2019-01-04T01:21:40.484Z,21.89
2019-01-04T01:24:29.096Z,21.87
2019-01-04T01:27:34.015Z,21.85
2019-01-04T01:30:14.255Z,21.85
2019-01-04T01:33:06.611Z,21.83
2019-01-04T01:35:40.695Z,21.82
2019-01-04T01:38:27.849Z,21.82
2019-01-04T01:41:05.028Z,21.80
2019-01-04T01:43:53.262Z,21.78
2019-01-04T01:46:33.044Z,21.80
2019-01-04T01:49:16.588Z,21.77
2019-01-04T01:51:50.765Z,21.76
2019-01-04T01:54:19.146Z,21.75
2019-01-04T01:56:47.536Z,21.74
2019-01-04T01:59:15.925Z,21.75
2019-01-04T02:01:45.550Z,21.75
2019-01-04T02:04:13.915Z,21.74
2019-01-04T02:06:42.298Z,21.73
2019-01-04T02:09:11.288Z,21.72
2019-01-04T02:11:39.666Z,21.72
2019-01-04T02:14:08.050Z,21.73
2019-01-04T02:16:36.436Z,21.71
2019-01-04T02:19:04.830Z,21.71
2019-01-04T02:21:33.198Z,21.70
2019-01-04T02:24:01.589Z,21.68
2019-01-04T02:26:29.985Z,21.68
2019-01-04T02:28:58.374Z,21.68
2019-01-04T02:31:26.758Z,21.67
2019-01-04T02:33:55.146Z,21.66
2019-01-04T02:36:23.521Z,21.65
2019-01-04T02:38:51.926Z,21.64
2019-01-04T02:41:20.306Z,21.64
2019-01-04T02:43:48.690Z,21.63
2019-01-04T02:46:17.068Z,21.62
2019-01-04T02:48:45.449Z,21.61
2019-01-04T02:51:13.837Z,21.60
2019-01-04T02:53:42.255Z,21.61
2019-01-04T02:56:10.641Z,21.59
2019-01-04T02:58:39.022Z,21.59
2019-01-04T03:01:08.078Z,21.57
2019-01-04T03:03:36.461Z,21.57
2019-01-04T03:06:04.870Z,21.56
2019-01-04T03:08:33.235Z,21.55
2019-01-04T03:11:01.620Z,21.55
2019-01-04T03:13:29.997Z,21.54
2019-01-04T03:15:58.388Z,21.53
2019-01-04T03:18:26.764Z,21.54
2019-01-04T03:20:55.152Z,21.52
2019-01-04T03:23:23.533Z,21.52
2019-01-04T03:25:51.925Z,21.51
2019-01-04T03:28:20.308Z,21.51
2019-01-04T03:30:48.716Z,21.49
2019-01-04T03:33:17.084Z,21.50
2019-01-04T03:35:45.471Z,21.49
2019-01-04T03:38:13.865Z,21.48
2019-01-04T03:40:42.315Z,21.47
2019-01-04T03:43:10.716Z,21.46
2019-01-04T03:45:39.085Z,21.45
2019-01-04T03:48:07.490Z,21.45
2019-01-04T03:50:35.923Z,21.45
2019-01-04T03:53:04.319Z,21.44
2019-01-04T03:55:32.699Z,21.43
2019-01-04T03:58:01.076Z,21.41
2019-01-04T04:00:29.454Z,21.41
2019-01-04T04:02:57.841Z,21.40
2019-01-04T04:05:26.218Z,21.39
2019-01-04T04:07:54.602Z,21.38
2019-01-04T04:10:22.978Z,21.38
2019-01-04T04:12:51.362Z,21.38
2019-01-04T04:15:19.746Z,21.37
2019-01-04T04:17:48.133Z,21.34
2019-01-04T04:20:16.511Z,21.34
2019-01-04T04:22:44.903Z,21.34
2019-01-04T04:25:13.284Z,21.33
2019-01-04T04:27:41.669Z,21.32
2019-01-04T04:30:10.048Z,21.31
2019-01-04T04:32:38.438Z,21.31
2019-01-04T04:35:06.825Z,21.30
2019-01-04T04:37:35.210Z,21.29
2019-01-04T04:40:03.661Z,21.28
2019-01-04T04:42:32.038Z,21.27
2019-01-04T04:45:00.429Z,21.26
2019-01-04T04:47:28.801Z,21.26
2019-01-04T04:49:57.190Z,21.24
2019-01-04T04:52:25.572Z,21.24
2019-01-04T04:54:54.201Z,21.23
2019-01-04T04:57:22.589Z,21.22
2019-01-04T04:59:50.974Z,21.21
2019-01-04T05:02:19.358Z,21.20
2019-01-04T05:04:47.746Z,21.19
2019-01-04T05:07:16.120Z,21.18
2019-01-04T05:09:44.516Z,21.17
2019-01-04T05:12:12.910Z,21.16
2019-01-04T05:14:41.302Z,21.15
2019-01-04T05:17:09.672Z,21.15
2019-01-04T05:19:38.067Z,21.14
2019-01-04T05:22:06.446Z,21.13
2019-01-04T05:24:34.853Z,21.12
2019-01-04T05:27:03.223Z,21.12
2019-01-04T05:29:31.614Z,21.11
2019-01-04T05:31:59.995Z,21.10
2019-01-04T05:34:28.407Z,21.09
2019-01-04T05:36:56.798Z,21.09
2019-01-04T05:39:25.174Z,21.08
2019-01-04T05:41:53.571Z,21.07
2019-01-04T05:44:21.964Z,21.07
2019-01-04T05:46:50.348Z,21.06
2019-01-04T05:49:18.725Z,21.04
2019-01-04T05:51:47.110Z,21.04
2019-01-04T05:54:15.494Z,21.03
2019-01-04T05:56:43.879Z,21.03
2019-01-04T05:59:12.253Z,21.02
2019-01-04T06:01:40.642Z,21.02
2019-01-04T06:04:09.038Z,21.01
2019-01-04T06:06:37.418Z,21.00
2019-01-04T06:09:07.558Z,21.00
2019-01-04T06:11:35.961Z,20.99
2019-01-04T06:14:04.329Z,20.98
2019-01-04T06:16:32.715Z,20.98
2019-01-04T06:19:01.096Z,20.98
2019-01-04T06:21:29.485Z,20.97
2019-01-04T06:23:57.867Z,20.97
2019-01-04T06:26:26.257Z,20.96
2019-01-04T06:28:54.637Z,20.95
2019-01-04T06:31:23.031Z,20.95
2019-01-04T06:33:51.416Z,20.94
2019-01-04T06:36:19.839Z,20.94
2019-01-04T06:38:48.303Z,20.93
2019-01-04T06:41:16.656Z,20.92
2019-01-04T06:43:45.049Z,20.91
2019-01-04T06:46:13.443Z,20.90
2019-01-04T06:48:41.835Z,20.91
2019-01-04T06:51:10.209Z,20.89
2019-01-04T06:53:38.600Z,20.89
2019-01-04T06:56:06.974Z,20.90
2019-01-04T06:58:35.368Z,20.89
2019-01-04T07:01:03.744Z,20.88
2019-01-04T07:03:32.148Z,20.88
2019-01-04T07:06:00.520Z,20.88
2019-01-04T07:08:28.906Z,20.88
2019-01-04T07:10:57.287Z,20.86
2019-01-04T07:13:25.675Z,20.86
2019-01-04T07:15:54.054Z,20.86
2019-01-04T07:18:22.448Z,20.86
2019-01-04T07:20:50.827Z,20.84
2019-01-04T07:23:19.202Z,20.84
2019-01-04T07:25:47.595Z,20.84
2019-01-04T07:28:15.975Z,20.84
2019-01-04T07:30:44.360Z,20.82
2019-01-04T07:33:12.735Z,20.83
2019-01-04T07:35:41.190Z,20.81
2019-01-04T07:38:09.577Z,20.81
2019-01-04T07:40:37.957Z,20.81
2019-01-04T07:43:07.297Z,20.81
2019-01-04T07:45:35.687Z,20.80
2019-01-04T07:48:04.072Z,20.80
2019-01-04T07:50:32.461Z,20.78
2019-01-04T07:53:00.836Z,20.78
2019-01-04T07:55:29.284Z,20.77
2019-01-04T07:57:57.656Z,20.77
2019-01-04T08:00:26.100Z,20.74
2019-01-04T08:02:54.484Z,20.73
2019-01-04T08:05:22.872Z,20.72
2019-01-04T08:07:51.258Z,20.70
2019-01-04T08:10:19.634Z,20.65
2019-01-04T08:12:48.024Z,20.68
2019-01-04T08:15:16.424Z,20.66
2019-01-04T08:17:44.805Z,20.66
2019-01-04T08:20:13.363Z,20.65
2019-01-04T08:22:41.741Z,20.63
2019-01-04T08:25:10.184Z,20.63
2019-01-04T08:27:38.577Z,20.62
2019-01-04T08:30:10.210Z,20.61
2019-01-04T08:32:38.584Z,20.60
2019-01-04T08:35:07.106Z,20.60
2019-01-04T08:37:35.542Z,20.59
2019-01-04T08:40:04.866Z,20.58
2019-01-04T08:42:33.258Z,20.57
2019-01-04T08:45:01.628Z,20.56
2019-01-04T08:47:30.004Z,20.56
2019-01-04T08:49:58.398Z,20.55
2019-01-04T08:52:26.782Z,20.55
2019-01-04T08:54:55.185Z,20.54
2019-01-04T08:57:23.561Z,20.54
2019-01-04T08:59:51.946Z,20.53
2019-01-04T09:02:20.327Z,20.52
2019-01-04T09:04:48.715Z,20.52
2019-01-04T09:07:17.095Z,20.50
2019-01-04T09:09:45.479Z,20.50
2019-01-04T09:12:13.864Z,20.49
2019-01-04T09:14:42.250Z,20.49
2019-01-04T09:17:10.632Z,20.49
2019-01-04T09:19:39.019Z,20.48
2019-01-04T09:22:07.394Z,20.48
2019-01-04T09:24:35.780Z,20.48
2019-01-04T09:27:04.497Z,20.47
2019-01-04T09:29:32.899Z,20.46
2019-01-04T09:32:01.280Z,20.46
2019-01-04T09:34:29.665Z,20.46
2019-01-04T09:36:58.052Z,20.46
2019-01-04T09:39:26.913Z,20.45
2019-01-04T09:41:55.435Z,20.45
2019-01-04T09:44:23.814Z,20.44
2019-01-04T09:46:52.197Z,20.43
2019-01-04T09:49:20.637Z,20.42
2019-01-04T09:51:49.068Z,20.43
2019-01-04T09:54:17.441Z,20.42
2019-01-04T09:56:45.830Z,20.42
2019-01-04T09:59:14.206Z,20.39
2019-01-04T10:01:42.600Z,20.41
2019-01-04T10:04:10.974Z,20.39
2019-01-04T10:06:39.373Z,20.38
2019-01-04T10:09:08.223Z,20.37
2019-01-04T10:11:36.614Z,20.37
2019-01-04T10:14:04.994Z,20.36
2019-01-04T10:16:33.384Z,20.36
2019-01-04T10:19:01.771Z,20.36
2019-01-04T10:21:30.160Z,20.37
2019-01-04T10:23:58.540Z,20.37
2019-01-04T10:26:26.928Z,20.37
2019-01-04T10:28:55.313Z,20.36
2019-01-04T10:31:23.701Z,20.37
2019-01-04T10:33:52.972Z,20.36
2019-01-04T10:36:21.354Z,20.36
2019-01-04T10:38:50.309Z,20.36
2019-01-04T10:41:18.689Z,20.36
2019-01-04T10:43:47.085Z,20.36
2019-01-04T10:46:15.459Z,20.36
2019-01-04T10:48:43.852Z,20.36
2019-01-04T10:51:12.225Z,20.34
2019-01-04T10:53:40.621Z,20.34
2019-01-04T10:56:09.021Z,20.36
2019-01-04T10:58:37.423Z,20.34
2019-01-04T11:01:05.798Z,20.34
2019-01-04T11:03:34.431Z,20.34
2019-01-04T11:06:02.831Z,20.36
2019-01-04T11:08:31.215Z,20.38
2019-01-04T11:10:59.592Z,20.36
2019-01-04T11:13:27.979Z,20.35
2019-01-04T11:15:56.360Z,20.34
2019-01-04T11:18:24.744Z,20.34
2019-01-04T11:20:53.263Z,20.33
2019-01-04T11:23:59.658Z,20.32
2019-01-04T11:26:43.112Z,20.33
2019-01-04T11:29:20.066Z,20.29
2019-01-04T11:32:03.323Z,20.28
2019-01-04T11:34:37.446Z,20.29
2019-01-04T11:37:23.952Z,20.28
2019-01-04T11:40:01.118Z,20.28
2019-01-04T11:42:38.268Z,20.27
2019-01-04T11:45:24.812Z,20.27
2019-01-04T11:47:56.238Z,20.28
2019-01-04T11:50:36.243Z,20.26
2019-01-04T11:53:07.920Z,20.27
2019-01-04T11:55:36.307Z,20.26
2019-01-04T11:58:04.688Z,20.26
2019-01-04T12:00:33.073Z,20.26
2019-01-04T12:03:01.466Z,20.27
2019-01-04T12:05:29.846Z,20.27
2019-01-04T12:07:58.227Z,20.27
2019-01-04T12:10:26.619Z,20.27
2019-01-04T12:12:54.999Z,20.28
2019-01-04T12:15:23.386Z,20.27
2019-01-04T12:17:51.786Z,20.27
2019-01-04T12:20:20.189Z,20.27
2019-01-04T12:22:48.570Z,20.27
2019-01-04T12:25:16.954Z,20.26
2019-01-04T12:27:45.332Z,20.27
2019-01-04T12:30:13.782Z,20.27
2019-01-04T12:32:42.166Z,20.26
2019-01-04T12:35:10.546Z,20.26
2019-01-04T12:37:38.946Z,20.25
2019-01-04T12:40:07.704Z,20.26
2019-01-04T12:42:36.094Z,20.25
2019-01-04T12:45:05.414Z,20.25
2019-01-04T12:47:33.798Z,20.24
2019-01-04T12:50:02.187Z,20.25
2019-01-04T12:52:30.573Z,20.25
2019-01-04T12:54:58.953Z,20.26
2019-01-04T12:57:27.369Z,20.24
2019-01-04T12:59:55.750Z,20.24
2019-01-04T13:02:24.402Z,20.23
2019-01-04T13:04:52.790Z,20.24
2019-01-04T13:07:21.251Z,20.23
2019-01-04T13:09:49.635Z,20.23
2019-01-04T13:12:18.026Z,20.22
2019-01-04T13:14:46.402Z,20.22
2019-01-04T13:17:14.809Z,20.21
2019-01-04T13:19:43.184Z,20.22
2019-01-04T13:22:11.563Z,20.21
2019-01-04T13:24:39.947Z,20.21
2019-01-04T13:27:08.322Z,20.20
2019-01-04T13:29:36.705Z,20.19
2019-01-04T13:32:05.082Z,20.20
2019-01-04T13:34:33.476Z,20.20
2019-01-04T13:37:01.850Z,20.19
2019-01-04T13:39:30.252Z,20.18
2019-01-04T13:41:58.621Z,20.18
2019-01-04T13:44:27.008Z,20.18
2019-01-04T13:46:55.678Z,20.18
2019-01-04T13:49:24.069Z,20.17
2019-01-04T13:51:52.445Z,20.17
2019-01-04T13:54:20.831Z,20.17
2019-01-04T13:56:49.214Z,20.16
2019-01-04T13:59:17.610Z,20.16
2019-01-04T14:01:45.981Z,20.16
2019-01-04T14:04:14.372Z,20.18
2019-01-04T14:06:42.745Z,20.16
2019-01-04T14:09:11.135Z,20.17
2019-01-04T14:11:39.510Z,20.16
2019-01-04T14:14:07.894Z,20.16
2019-01-04T14:16:36.277Z,20.16
2019-01-04T14:19:04.665Z,20.15
2019-01-04T14:21:33.042Z,20.15
2019-01-04T14:24:01.425Z,20.16
2019-01-04T14:26:29.800Z,20.15
2019-01-04T14:28:58.179Z,20.15
2019-01-04T14:31:26.945Z,20.15
2019-01-04T14:33:55.338Z,20.13
2019-01-04T14:36:23.728Z,20.13
2019-01-04T14:38:52.112Z,20.12
2019-01-04T14:41:23.397Z,20.11
2019-01-04T14:43:50.606Z,20.10
2019-01-04T14:46:18.997Z,20.10
2019-01-04T14:48:47.378Z,20.10
2019-01-04T14:51:15.768Z,20.09
2019-01-04T14:53:44.147Z,20.08
2019-01-04T14:56:13.502Z,20.08
2019-01-04T14:58:41.884Z,20.07
2019-01-04T15:01:10.282Z,20.06
2019-01-04T15:03:38.649Z,20.06
2019-01-04T15:06:07.038Z,20.05
2019-01-04T15:08:35.419Z,20.04
2019-01-04T15:11:03.802Z,20.03
2019-01-04T15:13:32.182Z,20.03
2019-01-04T15:16:00.593Z,20.03
2019-01-04T15:18:28.968Z,20.03
2019-01-04T15:20:58.384Z,20.02
2019-01-04T15:23:26.767Z,20.03
2019-01-04T15:25:55.140Z,20.04
2019-01-04T15:28:23.527Z,20.04
2019-01-04T15:30:51.908Z,20.04
2019-01-04T15:33:20.294Z,20.03
2019-01-04T15:35:48.673Z,20.04
2019-01-04T15:38:17.061Z,20.04
2019-01-04T15:40:45.446Z,20.03
2019-01-04T15:43:13.830Z,20.04
2019-01-04T15:45:42.212Z,20.05
2019-01-04T15:48:10.612Z,20.04
2019-01-04T15:50:39.002Z,20.05
2019-01-04T15:53:07.389Z,20.04
2019-01-04T15:55:35.768Z,20.04
2019-01-04T15:58:04.161Z,20.06
2019-01-04T16:00:32.543Z,20.06
2019-01-04T16:03:00.930Z,20.06
2019-01-04T16:05:29.559Z,20.06
2019-01-04T16:07:57.951Z,20.06
2019-01-04T16:10:26.327Z,20.06
2019-01-04T16:12:54.713Z,20.07
2019-01-04T16:15:23.090Z,20.07
2019-01-04T16:17:51.479Z,20.06
2019-01-04T16:20:19.858Z,20.08
2019-01-04T16:22:48.246Z,20.08
2019-01-04T16:25:18.268Z,20.08
2019-01-04T16:27:46.657Z,20.09
2019-01-04T16:30:15.035Z,20.09
2019-01-04T16:32:43.421Z,20.09
2019-01-04T16:35:11.797Z,20.10
2019-01-04T16:37:40.190Z,20.10
2019-01-04T16:40:09.037Z,20.11
2019-01-04T16:42:37.431Z,20.10
2019-01-04T16:45:06.860Z,20.11
2019-01-04T16:47:35.250Z,20.13
2019-01-04T16:50:05.685Z,20.13
2019-01-04T16:52:34.075Z,20.13
2019-01-04T16:55:02.464Z,20.12
2019-01-04T16:57:31.279Z,20.13
2019-01-04T16:59:59.674Z,20.15
2019-01-04T17:02:28.098Z,20.20
2019-01-04T17:04:56.445Z,20.20
2019-01-04T17:07:24.822Z,20.20
2019-01-04T17:09:53.216Z,20.24
2019-01-04T17:12:21.597Z,20.25
2019-01-04T17:14:49.988Z,20.25
2019-01-04T17:17:18.367Z,20.28
2019-01-04T17:19:46.754Z,20.28
2019-01-04T17:22:15.142Z,20.31
2019-01-04T17:24:43.530Z,20.31
2019-01-04T17:27:11.919Z,20.33
2019-01-04T17:29:40.303Z,20.42
2019-01-04T17:32:08.685Z,20.47
2019-01-04T17:34:37.079Z,20.51
2019-01-04T17:37:05.462Z,20.53
2019-01-04T17:39:33.863Z,20.53
2019-01-04T17:42:02.256Z,20.55
2019-01-04T17:44:30.653Z,20.57
2019-01-04T17:46:59.039Z,20.57
2019-01-04T17:49:27.454Z,20.59
2019-01-04T17:51:55.841Z,20.60
2019-01-04T17:54:24.228Z,20.62
2019-01-04T17:56:52.615Z,20.63
2019-01-04T17:59:21.050Z,20.62
2019-01-04T18:01:50.724Z,20.62
2019-01-04T18:04:19.084Z,20.63
2019-01-04T18:06:47.549Z,20.66
2019-01-04T18:09:15.947Z,20.67
2019-01-04T18:11:44.344Z,20.67
2019-01-04T18:14:12.724Z,20.69
2019-01-04T18:16:41.120Z,20.72
2019-01-04T18:19:09.509Z,20.78
2019-01-04T18:21:37.908Z,20.81
2019-01-04T18:24:06.609Z,20.84
2019-01-04T18:26:35.008Z,20.86
2019-01-04T18:29:03.575Z,20.93
2019-01-04T18:31:31.974Z,20.98
2019-01-04T18:34:00.366Z,21.01
2019-01-04T18:36:28.765Z,21.00
2019-01-04T18:38:57.229Z,20.97
2019-01-04T18:41:25.641Z,21.09
2019-01-04T18:43:54.051Z,21.20
2019-01-04T18:46:22.522Z,21.26
2019-01-04T18:48:50.916Z,21.32
2019-01-04T18:51:19.343Z,21.39
2019-01-04T18:53:47.731Z,21.47
2019-01-04T18:56:16.186Z,21.52
2019-01-04T18:58:44.544Z,21.59
2019-01-04T19:01:13.813Z,21.66
2019-01-04T19:03:42.206Z,21.72
2019-01-04T19:06:10.609Z,21.80
2019-01-04T19:08:38.996Z,21.85
2019-01-04T19:11:07.402Z,21.93
2019-01-04T19:13:35.804Z,21.99
2019-01-04T19:16:04.866Z,22.06
2019-01-04T19:18:33.267Z,22.13
2019-01-04T19:21:01.668Z,22.20
2019-01-04T19:23:30.053Z,22.32
2019-01-04T19:25:58.448Z,22.40
2019-01-04T19:28:26.838Z,22.49
2019-01-04T19:30:55.308Z,22.58
2019-01-04T19:33:23.755Z,22.66
2019-01-04T19:35:52.149Z,22.72
2019-01-04T19:38:20.539Z,22.80
2019-01-04T19:40:48.936Z,22.87
2019-01-04T19:43:17.332Z,22.95
2019-01-04T19:45:45.716Z,23.02
2019-01-04T19:48:14.114Z,23.08
2019-01-04T19:50:42.505Z,23.13
2019-01-04T19:53:10.943Z,23.17
2019-01-04T19:55:39.323Z,23.23
2019-01-04T19:58:07.717Z,23.27
2019-01-04T20:00:36.104Z,23.32
2019-01-04T20:03:04.501Z,23.38
2019-01-04T20:05:37.574Z,23.41
2019-01-04T20:08:32.307Z,23.46
2019-01-04T20:11:24.938Z,23.51
2019-01-04T20:14:20.654Z,23.50
2019-01-04T20:17:02.095Z,23.54
2019-01-04T20:19:37.780Z,23.55
2019-01-04T20:22:24.378Z,23.57
2019-01-04T20:25:02.878Z,23.59
2019-01-04T20:27:48.804Z,23.60
2019-01-04T20:30:33.504Z,23.63
2019-01-04T20:33:03.543Z,23.65
2019-01-04T20:35:39.268Z,23.66
2019-01-04T20:38:25.523Z,23.65
2019-01-04T20:41:10.632Z,23.68
2019-01-04T20:43:43.398Z,23.72
2019-01-04T20:46:25.334Z,23.73
2019-01-04T20:48:58.276Z,23.74
2019-01-04T20:51:43.331Z,23.75
2019-01-04T20:54:29.774Z,23.76
2019-01-04T20:57:15.690Z,23.76
2019-01-04T21:00:01.581Z,23.76
2019-01-04T21:02:49.904Z,23.71
2019-01-04T21:05:19.939Z,23.71
2019-01-04T21:07:55.956Z,23.56
2019-01-04T21:10:31.294Z,23.28
2019-01-04T21:13:00.416Z,23.21
2019-01-04T21:15:36.575Z,23.34
2019-01-04T21:18:15.505Z,23.45
2019-01-04T21:20:51.230Z,23.53
2019-01-04T21:23:21.254Z,23.57
2019-01-04T21:25:54.252Z,23.54
2019-01-04T21:28:39.328Z,23.39
2019-01-04T21:31:16.219Z,23.37
2019-01-04T21:33:46.252Z,23.36
2019-01-04T21:36:28.305Z,23.34
2019-01-04T21:39:04.568Z,23.32
2019-01-04T21:41:43.635Z,23.32
2019-01-04T21:44:25.618Z,23.33
2019-01-04T21:46:55.721Z,23.31
2019-01-04T21:49:42.315Z,23.29
2019-01-04T21:52:15.058Z,23.28
2019-01-04T21:54:45.078Z,23.29
2019-01-04T21:57:23.703Z,23.28
2019-01-04T22:00:11.756Z,23.32
2019-01-04T22:02:41.792Z,23.31
2019-01-04T22:08:03.622Z,23.29
2019-01-04T22:10:33.642Z,23.28
2019-01-04T22:13:15.685Z,23.25
2019-01-04T22:15:54.614Z,23.25
2019-01-04T22:18:33.273Z,23.24
2019-01-04T22:21:08.953Z,23.22
2019-01-04T22:23:39.055Z,23.21
2019-01-04T22:26:11.856Z,23.20
2019-01-04T22:28:51.132Z,23.19
2019-01-04T22:31:33.463Z,23.18
2019-01-04T22:34:06.546Z,23.17
2019-01-04T22:36:42.358Z,23.16
2019-01-04T22:39:28.561Z,23.15
2019-01-04T22:42:13.889Z,23.13
2019-01-04T22:45:00.168Z,23.11
2019-01-04T22:47:42.377Z,23.10
2019-01-04T22:50:29.023Z,23.08
2019-01-04T22:53:10.767Z,23.06
2019-01-04T22:55:52.813Z,23.05
2019-01-04T22:58:35.114Z,23.04
2019-01-04T23:01:05.219Z,23.02
2019-01-04T23:03:51.449Z,23.01
2019-01-04T23:06:37.347Z,23.02
2019-01-04T23:09:24.187Z,23.00
2019-01-04T23:12:06.280Z,22.98
2019-01-04T23:14:52.218Z,22.97
2019-01-04T23:17:24.948Z,22.97
2019-01-04T23:19:55.260Z,22.94
2019-01-04T23:22:46.086Z,22.94
2019-01-04T23:25:28.034Z,22.94
2019-01-04T23:27:58.052Z,22.92
2019-01-04T23:30:44.051Z,22.92
2019-01-04T23:33:16.728Z,22.92
2019-01-04T23:36:01.768Z,22.91
2019-01-04T23:38:40.897Z,22.90
2019-01-04T23:41:19.730Z,22.88
2019-01-04T23:43:58.471Z,22.83
2019-01-04T23:46:45.095Z,22.87
2019-01-04T23:49:23.929Z,22.86
2019-01-04T23:52:09.109Z,22.85
2019-01-04T23:54:39.156Z,22.84
2019-01-04T23:57:21.144Z,22.84
